sensor_id;sensor_type;location;lat;lon;timestamp;temperature;humidity
19365;DHT22;9818;48.382;10.850;2022-09-12T00:01:32;12.10;99.90
19365;DHT22;9818;48.382;10.850;2022-09-12T00:04:00;11.90;99.90
19365;DHT22;9818;48.382;10.850;2022-09-12T00:06:30;11.90;99.90
19365;DHT22;9818;48.382;10.850;2022-09-12T00:08:59;11.80;99.90
19365;DHT22;9818;48.382;10.850;2022-09-12T00:11:28;11.90;99.90
19365;DHT22;9818;48.382;10.850;2022-09-12T00:13:57;11.80;99.90
19365;DHT22;9818;48.382;10.850;2022-09-12T00:16:29;11.80;99.90
19365;DHT22;9818;48.382;10.850;2022-09-12T00:18:58;11.80;99.90
19365;DHT22;9818;48.382;10.850;2022-09-12T00:21:26;11.70;99.90
19365;DHT22;9818;48.382;10.850;2022-09-12T00:23:55;11.80;99.90
19365;DHT22;9818;48.382;10.850;2022-09-12T00:26:23;11.70;99.90
19365;DHT22;9818;48.382;10.850;2022-09-12T00:28:52;11.70;99.90
19365;DHT22;9818;48.382;10.850;2022-09-12T00:31:21;11.50;99.90
19365;DHT22;9818;48.382;10.850;2022-09-12T00:33:54;11.60;99.90
19365;DHT22;9818;48.382;10.850;2022-09-12T00:36:23;11.60;99.90
19365;DHT22;9818;48.382;10.850;2022-09-12T00:38:52;11.50;99.90
19365;DHT22;9818;48.382;10.850;2022-09-12T00:41:21;11.60;99.90
19365;DHT22;9818;48.382;10.850;2022-09-12T00:43:51;11.70;99.90
19365;DHT22;9818;48.382;10.850;2022-09-12T00:46:23;11.60;99.90
19365;DHT22;9818;48.382;10.850;2022-09-12T00:48:57;11.60;99.90
19365;DHT22;9818;48.382;10.850;2022-09-12T00:51:27;11.60;99.90
19365;DHT22;9818;48.382;10.850;2022-09-12T00:53:56;11.60;99.90
19365;DHT22;9818;48.382;10.850;2022-09-12T00:56:26;11.50;99.90
19365;DHT22;9818;48.382;10.850;2022-09-12T00:58:57;11.50;99.90
19365;DHT22;9818;48.382;10.850;2022-09-12T01:01:27;11.50;99.90
19365;DHT22;9818;48.382;10.850;2022-09-12T01:03:58;11.50;99.90
19365;DHT22;9818;48.382;10.850;2022-09-12T01:06:27;11.50;99.90
19365;DHT22;9818;48.382;10.850;2022-09-12T01:20:34;11.10;99.90
19365;DHT22;9818;48.382;10.850;2022-09-12T01:38:22;10.80;99.90
19365;DHT22;9818;48.382;10.850;2022-09-12T01:53:12;10.80;99.90
19365;DHT22;9818;48.382;10.850;2022-09-12T02:25:25;10.70;99.90
19365;DHT22;9818;48.382;10.850;2022-09-12T02:48:36;10.50;99.90
19365;DHT22;9818;48.382;10.850;2022-09-12T02:52:52;10.40;99.90
19365;DHT22;9818;48.382;10.850;2022-09-12T02:57:53;10.40;99.90
19365;DHT22;9818;48.382;10.850;2022-09-12T03:00:22;10.30;99.90
19365;DHT22;9818;48.382;10.850;2022-09-12T03:02:53;10.30;99.90
19365;DHT22;9818;48.382;10.850;2022-09-12T03:05:29;10.20;99.90
19365;DHT22;9818;48.382;10.850;2022-09-12T03:08:05;10.20;99.90
19365;DHT22;9818;48.382;10.850;2022-09-12T03:10:40;10.20;99.90
19365;DHT22;9818;48.382;10.850;2022-09-12T03:13:13;10.10;99.90
19365;DHT22;9818;48.382;10.850;2022-09-12T03:15:45;10.20;99.90
19365;DHT22;9818;48.382;10.850;2022-09-12T03:18:18;10.10;99.90
19365;DHT22;9818;48.382;10.850;2022-09-12T03:20:52;10.20;99.90
19365;DHT22;9818;48.382;10.850;2022-09-12T03:23:24;10.10;99.90
19365;DHT22;9818;48.382;10.850;2022-09-12T03:25:56;10.10;99.90
19365;DHT22;9818;48.382;10.850;2022-09-12T03:28:26;10.10;99.90
19365;DHT22;9818;48.382;10.850;2022-09-12T03:30:55;10.00;99.90
19365;DHT22;9818;48.382;10.850;2022-09-12T03:33:24;10.00;99.90
19365;DHT22;9818;48.382;10.850;2022-09-12T03:35:55;10.00;99.90
19365;DHT22;9818;48.382;10.850;2022-09-12T03:38:23;10.20;99.90
19365;DHT22;9818;48.382;10.850;2022-09-12T03:40:52;10.10;99.90
19365;DHT22;9818;48.382;10.850;2022-09-12T03:43:20;10.00;99.90
19365;DHT22;9818;48.382;10.850;2022-09-12T03:45:49;10.00;99.90
19365;DHT22;9818;48.382;10.850;2022-09-12T03:48:17;10.00;99.90
19365;DHT22;9818;48.382;10.850;2022-09-12T03:50:46;9.90;99.90
19365;DHT22;9818;48.382;10.850;2022-09-12T03:53:17;9.90;99.90
19365;DHT22;9818;48.382;10.850;2022-09-12T03:55:45;9.90;99.90
19365;DHT22;9818;48.382;10.850;2022-09-12T03:58:13;9.90;99.90
19365;DHT22;9818;48.382;10.850;2022-09-12T04:00:42;9.90;99.90
19365;DHT22;9818;48.382;10.850;2022-09-12T04:03:11;9.90;99.90
19365;DHT22;9818;48.382;10.850;2022-09-12T04:05:39;9.80;99.90
19365;DHT22;9818;48.382;10.850;2022-09-12T04:08:08;9.80;99.90
19365;DHT22;9818;48.382;10.850;2022-09-12T04:10:39;9.80;99.90
19365;DHT22;9818;48.382;10.850;2022-09-12T04:13:07;9.80;99.90
19365;DHT22;9818;48.382;10.850;2022-09-12T04:15:36;9.80;99.90
19365;DHT22;9818;48.382;10.850;2022-09-12T04:18:04;9.80;99.90
19365;DHT22;9818;48.382;10.850;2022-09-12T04:20:32;9.70;99.90
19365;DHT22;9818;48.382;10.850;2022-09-12T04:23:01;9.70;99.90
19365;DHT22;9818;48.382;10.850;2022-09-12T04:25:29;9.70;99.90
19365;DHT22;9818;48.382;10.850;2022-09-12T04:28:01;9.70;99.90
19365;DHT22;9818;48.382;10.850;2022-09-12T04:30:29;9.60;99.90
19365;DHT22;9818;48.382;10.850;2022-09-12T04:32:57;9.60;99.90
19365;DHT22;9818;48.382;10.850;2022-09-12T04:35:26;9.60;99.90
19365;DHT22;9818;48.382;10.850;2022-09-12T04:37:54;9.60;99.90
19365;DHT22;9818;48.382;10.850;2022-09-12T04:40:23;9.60;99.90
19365;DHT22;9818;48.382;10.850;2022-09-12T04:42:51;9.60;99.90
19365;DHT22;9818;48.382;10.850;2022-09-12T04:45:23;9.60;99.90
19365;DHT22;9818;48.382;10.850;2022-09-12T04:47:51;9.60;99.90
19365;DHT22;9818;48.382;10.850;2022-09-12T04:50:20;9.60;99.90
19365;DHT22;9818;48.382;10.850;2022-09-12T04:52:48;9.60;99.90
19365;DHT22;9818;48.382;10.850;2022-09-12T04:55:17;9.60;99.90
19365;DHT22;9818;48.382;10.850;2022-09-12T04:57:45;9.60;99.90
19365;DHT22;9818;48.382;10.850;2022-09-12T05:00:14;9.60;99.90
19365;DHT22;9818;48.382;10.850;2022-09-12T05:02:45;9.60;99.90
19365;DHT22;9818;48.382;10.850;2022-09-12T05:05:13;9.60;99.90
19365;DHT22;9818;48.382;10.850;2022-09-12T05:07:42;9.70;99.90
19365;DHT22;9818;48.382;10.850;2022-09-12T05:10:10;9.70;99.90
19365;DHT22;9818;48.382;10.850;2022-09-12T05:12:39;9.80;99.90
19365;DHT22;9818;48.382;10.850;2022-09-12T05:15:08;9.80;99.90
19365;DHT22;9818;48.382;10.850;2022-09-12T05:17:37;9.90;99.90
19365;DHT22;9818;48.382;10.850;2022-09-12T05:20:08;9.90;99.90
19365;DHT22;9818;48.382;10.850;2022-09-12T05:22:37;9.90;99.90
19365;DHT22;9818;48.382;10.850;2022-09-12T05:25:06;9.90;99.90
19365;DHT22;9818;48.382;10.850;2022-09-12T05:27:35;10.00;99.90
19365;DHT22;9818;48.382;10.850;2022-09-12T05:30:04;10.10;99.90
19365;DHT22;9818;48.382;10.850;2022-09-12T05:32:32;10.20;99.90
19365;DHT22;9818;48.382;10.850;2022-09-12T05:35:01;10.30;99.90
19365;DHT22;9818;48.382;10.850;2022-09-12T05:37:32;10.40;99.90
19365;DHT22;9818;48.382;10.850;2022-09-12T05:40:00;10.40;99.90
19365;DHT22;9818;48.382;10.850;2022-09-12T05:42:31;10.50;99.90
19365;DHT22;9818;48.382;10.850;2022-09-12T05:45:01;10.60;99.90
19365;DHT22;9818;48.382;10.850;2022-09-12T05:47:30;10.70;99.90
19365;DHT22;9818;48.382;10.850;2022-09-12T05:49:58;10.80;99.90
19365;DHT22;9818;48.382;10.850;2022-09-12T05:52:27;10.80;99.90
19365;DHT22;9818;48.382;10.850;2022-09-12T05:54:58;10.90;99.90
19365;DHT22;9818;48.382;10.850;2022-09-12T05:57:26;11.10;99.90
19365;DHT22;9818;48.382;10.850;2022-09-12T05:59:54;11.20;99.90
19365;DHT22;9818;48.382;10.850;2022-09-12T06:02:23;11.20;99.90
19365;DHT22;9818;48.382;10.850;2022-09-12T06:04:51;11.30;99.90
19365;DHT22;9818;48.382;10.850;2022-09-12T06:07:20;11.40;99.90
19365;DHT22;9818;48.382;10.850;2022-09-12T06:09:48;11.60;99.90
19365;DHT22;9818;48.382;10.850;2022-09-12T06:12:19;11.60;99.90
19365;DHT22;9818;48.382;10.850;2022-09-12T06:14:48;11.70;99.90
19365;DHT22;9818;48.382;10.850;2022-09-12T06:17:16;11.70;99.90
19365;DHT22;9818;48.382;10.850;2022-09-12T06:19:44;12.00;99.90
19365;DHT22;9818;48.382;10.850;2022-09-12T06:22:14;12.90;99.90
19365;DHT22;9818;48.382;10.850;2022-09-12T06:24:43;15.20;99.90
19365;DHT22;9818;48.382;10.850;2022-09-12T06:27:11;17.20;99.90
19365;DHT22;9818;48.382;10.850;2022-09-12T06:29:43;18.50;99.90
19365;DHT22;9818;48.382;10.850;2022-09-12T06:32:11;19.70;99.90
19365;DHT22;9818;48.382;10.850;2022-09-12T06:34:40;19.60;99.90
19365;DHT22;9818;48.382;10.850;2022-09-12T06:37:12;20.80;99.90
19365;DHT22;9818;48.382;10.850;2022-09-12T06:39:40;22.80;99.90
19365;DHT22;9818;48.382;10.850;2022-09-12T06:42:09;23.20;99.90
19365;DHT22;9818;48.382;10.850;2022-09-12T06:44:39;24.20;99.90
19365;DHT22;9818;48.382;10.850;2022-09-12T06:47:11;25.00;99.90
19365;DHT22;9818;48.382;10.850;2022-09-12T06:49:40;25.80;99.90
19365;DHT22;9818;48.382;10.850;2022-09-12T06:52:08;26.20;99.90
19365;DHT22;9818;48.382;10.850;2022-09-12T06:54:37;25.10;99.90
19365;DHT22;9818;48.382;10.850;2022-09-12T06:57:06;24.30;99.90
19365;DHT22;9818;48.382;10.850;2022-09-12T06:59:35;24.60;99.90
19365;DHT22;9818;48.382;10.850;2022-09-12T07:02:04;26.00;99.90
19365;DHT22;9818;48.382;10.850;2022-09-12T07:04:36;25.50;99.90
19365;DHT22;9818;48.382;10.850;2022-09-12T07:07:05;25.60;99.90
19365;DHT22;9818;48.382;10.850;2022-09-12T07:09:34;26.70;99.90
19365;DHT22;9818;48.382;10.850;2022-09-12T07:12:02;27.90;99.90
19365;DHT22;9818;48.382;10.850;2022-09-12T07:14:31;27.90;99.90
19365;DHT22;9818;48.382;10.850;2022-09-12T07:17:00;28.60;99.90
19365;DHT22;9818;48.382;10.850;2022-09-12T07:19:28;28.80;99.90
19365;DHT22;9818;48.382;10.850;2022-09-12T07:22:00;27.40;99.90
19365;DHT22;9818;48.382;10.850;2022-09-12T07:24:29;25.50;99.90
19365;DHT22;9818;48.382;10.850;2022-09-12T07:26:57;25.40;99.90
19365;DHT22;9818;48.382;10.850;2022-09-12T07:29:26;27.30;99.90
19365;DHT22;9818;48.382;10.850;2022-09-12T07:31:54;27.90;99.90
19365;DHT22;9818;48.382;10.850;2022-09-12T07:34:24;27.90;99.90
19365;DHT22;9818;48.382;10.850;2022-09-12T07:36:53;29.70;99.90
19365;DHT22;9818;48.382;10.850;2022-09-12T07:39:24;28.50;99.90
19365;DHT22;9818;48.382;10.850;2022-09-12T07:41:53;27.10;99.90
19365;DHT22;9818;48.382;10.850;2022-09-12T07:44:22;27.60;99.90
19365;DHT22;9818;48.382;10.850;2022-09-12T07:46:51;29.50;99.90
19365;DHT22;9818;48.382;10.850;2022-09-12T07:49:20;30.60;99.00
19365;DHT22;9818;48.382;10.850;2022-09-12T07:51:48;29.40;99.90
19365;DHT22;9818;48.382;10.850;2022-09-12T07:54:17;30.80;99.90
19365;DHT22;9818;48.382;10.850;2022-09-12T07:56:49;29.30;99.90
19365;DHT22;9818;48.382;10.850;2022-09-12T07:59:17;29.60;99.90
19365;DHT22;9818;48.382;10.850;2022-09-12T08:01:46;31.00;99.90
19365;DHT22;9818;48.382;10.850;2022-09-12T08:04:15;31.70;99.90
19365;DHT22;9818;48.382;10.850;2022-09-12T08:06:43;31.60;97.40
19365;DHT22;9818;48.382;10.850;2022-09-12T08:09:12;32.40;98.70
19365;DHT22;9818;48.382;10.850;2022-09-12T08:11:42;29.60;87.10
19365;DHT22;9818;48.382;10.850;2022-09-12T08:14:13;28.90;99.90
19365;DHT22;9818;48.382;10.850;2022-09-12T08:16:42;28.90;99.90
19365;DHT22;9818;48.382;10.850;2022-09-12T08:19:14;28.10;99.90
19365;DHT22;9818;48.382;10.850;2022-09-12T08:21:43;27.00;99.90
19365;DHT22;9818;48.382;10.850;2022-09-12T08:24:11;29.10;99.90
19365;DHT22;9818;48.382;10.850;2022-09-12T08:26:40;28.70;99.90
19365;DHT22;9818;48.382;10.850;2022-09-12T08:29:09;30.10;99.90
19365;DHT22;9818;48.382;10.850;2022-09-12T08:31:43;29.70;98.20
19365;DHT22;9818;48.382;10.850;2022-09-12T08:34:12;29.30;99.90
19365;DHT22;9818;48.382;10.850;2022-09-12T08:36:41;30.30;95.70
19365;DHT22;9818;48.382;10.850;2022-09-12T08:39:12;31.30;96.30
19365;DHT22;9818;48.382;10.850;2022-09-12T08:41:43;30.70;84.00
19365;DHT22;9818;48.382;10.850;2022-09-12T08:44:34;29.30;99.90
19365;DHT22;9818;48.382;10.850;2022-09-12T08:47:24;30.10;89.90
19365;DHT22;9818;48.382;10.850;2022-09-12T08:50:08;29.90;72.20
19365;DHT22;9818;48.382;10.850;2022-09-12T08:52:41;29.40;97.40
19365;DHT22;9818;48.382;10.850;2022-09-12T08:55:23;30.30;94.40
19365;DHT22;9818;48.382;10.850;2022-09-12T08:57:52;30.60;84.90
19365;DHT22;9818;48.382;10.850;2022-09-12T09:00:22;31.20;80.40
19365;DHT22;9818;48.382;10.850;2022-09-12T09:03:08;31.30;78.90
19365;DHT22;9818;48.382;10.850;2022-09-12T09:05:46;28.10;92.10
19365;DHT22;9818;48.382;10.850;2022-09-12T09:08:32;26.80;99.90
19365;DHT22;9818;48.382;10.850;2022-09-12T09:11:17;26.70;99.90
19365;DHT22;9818;48.382;10.850;2022-09-12T09:13:56;27.20;99.90
19365;DHT22;9818;48.382;10.850;2022-09-12T09:16:41;26.70;99.90
19365;DHT22;9818;48.382;10.850;2022-09-12T09:19:16;25.80;99.90
19365;DHT22;9818;48.382;10.850;2022-09-12T09:21:50;26.70;99.90
19365;DHT22;9818;48.382;10.850;2022-09-12T09:24:26;26.70;99.90
19365;DHT22;9818;48.382;10.850;2022-09-12T09:26:59;26.40;98.90
19365;DHT22;9818;48.382;10.850;2022-09-12T09:29:34;25.90;99.90
19365;DHT22;9818;48.382;10.850;2022-09-12T09:32:12;26.30;99.90
19365;DHT22;9818;48.382;10.850;2022-09-12T09:34:46;25.70;99.90
19365;DHT22;9818;48.382;10.850;2022-09-12T09:37:18;26.60;99.90
19365;DHT22;9818;48.382;10.850;2022-09-12T09:39:54;28.30;99.90
19365;DHT22;9818;48.382;10.850;2022-09-12T09:42:32;28.50;91.50
19365;DHT22;9818;48.382;10.850;2022-09-12T09:45:13;25.70;99.90
19365;DHT22;9818;48.382;10.850;2022-09-12T09:47:44;27.70;99.90
19365;DHT22;9818;48.382;10.850;2022-09-12T09:50:18;29.20;94.30
19365;DHT22;9818;48.382;10.850;2022-09-12T09:52:46;29.60;92.50
19365;DHT22;9818;48.382;10.850;2022-09-12T09:55:21;29.80;94.10
19365;DHT22;9818;48.382;10.850;2022-09-12T09:57:51;30.40;91.80
19365;DHT22;9818;48.382;10.850;2022-09-12T10:00:26;29.20;90.60
19365;DHT22;9818;48.382;10.850;2022-09-12T10:03:27;27.90;95.70
19365;DHT22;9818;48.382;10.850;2022-09-12T10:06:01;26.60;99.90
19365;DHT22;9818;48.382;10.850;2022-09-12T10:08:35;24.50;99.90
19365;DHT22;9818;48.382;10.850;2022-09-12T10:11:06;24.60;99.90
19365;DHT22;9818;48.382;10.850;2022-09-12T10:13:52;27.10;99.90
19365;DHT22;9818;48.382;10.850;2022-09-12T10:16:23;29.00;95.20
19365;DHT22;9818;48.382;10.850;2022-09-12T10:18:53;29.00;92.60
19365;DHT22;9818;48.382;10.850;2022-09-12T10:21:31;28.90;92.20
19365;DHT22;9818;48.382;10.850;2022-09-12T10:24:05;30.10;92.20
19365;DHT22;9818;48.382;10.850;2022-09-12T10:26:41;28.60;96.20
19365;DHT22;9818;48.382;10.850;2022-09-12T10:29:14;27.90;92.60
19365;DHT22;9818;48.382;10.850;2022-09-12T10:31:48;27.00;99.90
19365;DHT22;9818;48.382;10.850;2022-09-12T10:34:22;26.60;99.90
19365;DHT22;9818;48.382;10.850;2022-09-12T10:36:59;24.80;99.90
19365;DHT22;9818;48.382;10.850;2022-09-12T10:39:29;24.10;99.90
19365;DHT22;9818;48.382;10.850;2022-09-12T10:41:59;24.70;99.90
19365;DHT22;9818;48.382;10.850;2022-09-12T10:44:29;25.80;98.00
19365;DHT22;9818;48.382;10.850;2022-09-12T10:46:59;25.60;99.90
19365;DHT22;9818;48.382;10.850;2022-09-12T10:49:29;25.50;93.90
19365;DHT22;9818;48.382;10.850;2022-09-12T10:52:21;26.00;99.90
19365;DHT22;9818;48.382;10.850;2022-09-12T10:54:50;27.10;92.20
19365;DHT22;9818;48.382;10.850;2022-09-12T10:57:26;26.70;95.10
19365;DHT22;9818;48.382;10.850;2022-09-12T11:00:09;25.60;93.40
19365;DHT22;9818;48.382;10.850;2022-09-12T11:02:46;25.10;99.90
19365;DHT22;9818;48.382;10.850;2022-09-12T11:05:18;25.20;99.90
19365;DHT22;9818;48.382;10.850;2022-09-12T11:07:50;24.90;99.90
19365;DHT22;9818;48.382;10.850;2022-09-12T11:10:25;24.40;99.90
19365;DHT22;9818;48.382;10.850;2022-09-12T11:12:57;24.40;99.90
19365;DHT22;9818;48.382;10.850;2022-09-12T11:18:21;23.40;99.90
19365;DHT22;9818;48.382;10.850;2022-09-12T11:20:57;23.20;99.90
19365;DHT22;9818;48.382;10.850;2022-09-12T11:23:38;23.20;99.90
19365;DHT22;9818;48.382;10.850;2022-09-12T11:26:12;23.10;99.90
19365;DHT22;9818;48.382;10.850;2022-09-12T11:28:46;23.00;99.90
19365;DHT22;9818;48.382;10.850;2022-09-12T11:31:33;23.30;99.90
19365;DHT22;9818;48.382;10.850;2022-09-12T11:34:07;22.30;99.90
19365;DHT22;9818;48.382;10.850;2022-09-12T11:36:36;21.70;99.90
19365;DHT22;9818;48.382;10.850;2022-09-12T11:39:13;22.30;99.90
19365;DHT22;9818;48.382;10.850;2022-09-12T11:41:42;22.30;99.90
19365;DHT22;9818;48.382;10.850;2022-09-12T11:44:14;22.90;99.90
19365;DHT22;9818;48.382;10.850;2022-09-12T11:46:44;23.10;99.90
19365;DHT22;9818;48.382;10.850;2022-09-12T11:49:18;22.70;99.90
19365;DHT22;9818;48.382;10.850;2022-09-12T11:51:49;22.10;99.90
19365;DHT22;9818;48.382;10.850;2022-09-12T11:54:23;22.30;99.90
19365;DHT22;9818;48.382;10.850;2022-09-12T11:56:54;22.30;99.90
19365;DHT22;9818;48.382;10.850;2022-09-12T11:59:28;22.80;99.90
19365;DHT22;9818;48.382;10.850;2022-09-12T12:01:58;23.50;99.90
19365;DHT22;9818;48.382;10.850;2022-09-12T12:04:29;23.50;99.90
19365;DHT22;9818;48.382;10.850;2022-09-12T12:07:00;23.30;99.90
19365;DHT22;9818;48.382;10.850;2022-09-12T12:09:33;23.50;99.90
19365;DHT22;9818;48.382;10.850;2022-09-12T12:12:03;23.70;99.90
19365;DHT22;9818;48.382;10.850;2022-09-12T12:14:37;23.50;99.90
19365;DHT22;9818;48.382;10.850;2022-09-12T12:17:14;23.00;99.90
19365;DHT22;9818;48.382;10.850;2022-09-12T12:19:42;23.00;99.90
19365;DHT22;9818;48.382;10.850;2022-09-12T12:22:15;22.50;99.90
19365;DHT22;9818;48.382;10.850;2022-09-12T12:24:58;22.30;99.90
19365;DHT22;9818;48.382;10.850;2022-09-12T12:27:45;22.60;99.90
19365;DHT22;9818;48.382;10.850;2022-09-12T12:32:58;22.00;99.90
19365;DHT22;9818;48.382;10.850;2022-09-12T12:35:35;22.60;99.90
19365;DHT22;9818;48.382;10.850;2022-09-12T12:38:11;23.20;99.90
19365;DHT22;9818;48.382;10.850;2022-09-12T12:40:55;23.60;99.90
19365;DHT22;9818;48.382;10.850;2022-09-12T12:43:47;24.00;99.90
19365;DHT22;9818;48.382;10.850;2022-09-12T12:46:16;24.60;99.90
19365;DHT22;9818;48.382;10.850;2022-09-12T12:48:49;24.00;99.90
19365;DHT22;9818;48.382;10.850;2022-09-12T12:51:23;24.10;99.90
19365;DHT22;9818;48.382;10.850;2022-09-12T12:53:53;24.10;99.90
19365;DHT22;9818;48.382;10.850;2022-09-12T12:56:24;24.10;99.90
19365;DHT22;9818;48.382;10.850;2022-09-12T12:58:58;24.80;99.90
19365;DHT22;9818;48.382;10.850;2022-09-12T13:01:28;24.80;99.90
19365;DHT22;9818;48.382;10.850;2022-09-12T13:04:04;24.30;99.90
19365;DHT22;9818;48.382;10.850;2022-09-12T13:06:39;24.40;99.90
19365;DHT22;9818;48.382;10.850;2022-09-12T13:09:16;24.50;99.90
19365;DHT22;9818;48.382;10.850;2022-09-12T13:11:47;23.60;99.90
19365;DHT22;9818;48.382;10.850;2022-09-12T13:17:24;23.10;99.90
19365;DHT22;9818;48.382;10.850;2022-09-12T13:20:01;23.50;99.90
19365;DHT22;9818;48.382;10.850;2022-09-12T13:22:37;23.30;99.90
19365;DHT22;9818;48.382;10.850;2022-09-12T13:27:56;24.20;99.90
19365;DHT22;9818;48.382;10.850;2022-09-12T13:30:24;24.30;99.90
19365;DHT22;9818;48.382;10.850;2022-09-12T13:33:00;24.30;99.90
19365;DHT22;9818;48.382;10.850;2022-09-12T13:35:33;24.30;99.90
19365;DHT22;9818;48.382;10.850;2022-09-12T13:38:07;24.50;99.90
19365;DHT22;9818;48.382;10.850;2022-09-12T13:40:44;24.00;99.90
19365;DHT22;9818;48.382;10.850;2022-09-12T13:43:15;24.20;99.90
19365;DHT22;9818;48.382;10.850;2022-09-12T13:45:45;23.70;99.90
19365;DHT22;9818;48.382;10.850;2022-09-12T13:48:18;24.00;99.90
19365;DHT22;9818;48.382;10.850;2022-09-12T13:50:49;23.50;99.90
19365;DHT22;9818;48.382;10.850;2022-09-12T13:53:18;23.70;99.90
19365;DHT22;9818;48.382;10.850;2022-09-12T13:55:48;23.40;99.90
19365;DHT22;9818;48.382;10.850;2022-09-12T13:58:19;23.80;99.90
19365;DHT22;9818;48.382;10.850;2022-09-12T14:00:59;24.20;99.90
19365;DHT22;9818;48.382;10.850;2022-09-12T14:03:30;24.50;99.90
19365;DHT22;9818;48.382;10.850;2022-09-12T14:06:12;24.60;99.90
19365;DHT22;9818;48.382;10.850;2022-09-12T14:08:43;25.00;99.90
19365;DHT22;9818;48.382;10.850;2022-09-12T14:11:17;25.20;99.90
19365;DHT22;9818;48.382;10.850;2022-09-12T14:13:48;25.00;99.90
19365;DHT22;9818;48.382;10.850;2022-09-12T14:16:17;24.90;99.90
19365;DHT22;9818;48.382;10.850;2022-09-12T14:18:48;24.80;98.70
19365;DHT22;9818;48.382;10.850;2022-09-12T14:21:20;24.70;99.90
19365;DHT22;9818;48.382;10.850;2022-09-12T14:23:54;24.80;99.90
19365;DHT22;9818;48.382;10.850;2022-09-12T14:26:23;25.30;99.90
19365;DHT22;9818;48.382;10.850;2022-09-12T14:28:52;25.60;99.90
19365;DHT22;9818;48.382;10.850;2022-09-12T14:31:22;25.70;99.90
19365;DHT22;9818;48.382;10.850;2022-09-12T14:33:54;25.60;99.90
19365;DHT22;9818;48.382;10.850;2022-09-12T14:36:24;25.60;99.90
19365;DHT22;9818;48.382;10.850;2022-09-12T14:38:54;25.50;94.90
19365;DHT22;9818;48.382;10.850;2022-09-12T14:41:24;25.40;98.10
19365;DHT22;9818;48.382;10.850;2022-09-12T14:43:54;25.20;96.50
19365;DHT22;9818;48.382;10.850;2022-09-12T14:46:25;25.10;98.80
19365;DHT22;9818;48.382;10.850;2022-09-12T14:48:57;25.10;99.90
19365;DHT22;9818;48.382;10.850;2022-09-12T14:51:30;25.20;99.90
19365;DHT22;9818;48.382;10.850;2022-09-12T14:53:59;25.00;99.50
19365;DHT22;9818;48.382;10.850;2022-09-12T14:56:38;25.00;98.80
19365;DHT22;9818;48.382;10.850;2022-09-12T14:59:19;24.80;99.90
19365;DHT22;9818;48.382;10.850;2022-09-12T15:04:39;25.00;95.00
19365;DHT22;9818;48.382;10.850;2022-09-12T15:07:12;24.50;99.10
19365;DHT22;9818;48.382;10.850;2022-09-12T15:09:41;24.80;98.10
19365;DHT22;9818;48.382;10.850;2022-09-12T15:12:09;24.00;98.20
19365;DHT22;9818;48.382;10.850;2022-09-12T15:14:38;23.50;99.90
19365;DHT22;9818;48.382;10.850;2022-09-12T15:17:06;23.70;99.90
19365;DHT22;9818;48.382;10.850;2022-09-12T15:19:35;24.20;99.90
19365;DHT22;9818;48.382;10.850;2022-09-12T15:22:08;24.40;98.50
19365;DHT22;9818;48.382;10.850;2022-09-12T15:24:37;24.60;98.00
19365;DHT22;9818;48.382;10.850;2022-09-12T15:27:08;24.60;98.80
19365;DHT22;9818;48.382;10.850;2022-09-12T15:29:36;24.40;99.90
19365;DHT22;9818;48.382;10.850;2022-09-12T15:32:05;24.50;99.50
19365;DHT22;9818;48.382;10.850;2022-09-12T15:34:33;24.20;99.30
19365;DHT22;9818;48.382;10.850;2022-09-12T15:37:07;23.80;99.90
19365;DHT22;9818;48.382;10.850;2022-09-12T15:39:35;24.00;99.90
19365;DHT22;9818;48.382;10.850;2022-09-12T15:42:04;24.00;99.90
19365;DHT22;9818;48.382;10.850;2022-09-12T15:44:33;24.00;99.90
19365;DHT22;9818;48.382;10.850;2022-09-12T15:47:01;23.90;99.90
19365;DHT22;9818;48.382;10.850;2022-09-12T15:49:29;23.90;99.90
19365;DHT22;9818;48.382;10.850;2022-09-12T15:51:58;24.00;99.90
19365;DHT22;9818;48.382;10.850;2022-09-12T15:54:29;23.80;99.90
19365;DHT22;9818;48.382;10.850;2022-09-12T15:56:58;23.80;99.90
19365;DHT22;9818;48.382;10.850;2022-09-12T15:59:27;23.50;99.90
19365;DHT22;9818;48.382;10.850;2022-09-12T16:01:55;23.40;99.90
19365;DHT22;9818;48.382;10.850;2022-09-12T16:04:24;23.40;99.90
19365;DHT22;9818;48.382;10.850;2022-09-12T16:06:53;23.50;99.90
19365;DHT22;9818;48.382;10.850;2022-09-12T16:09:22;23.50;99.90
19365;DHT22;9818;48.382;10.850;2022-09-12T16:11:53;23.30;99.90
19365;DHT22;9818;48.382;10.850;2022-09-12T16:14:22;23.30;99.90
19365;DHT22;9818;48.382;10.850;2022-09-12T16:16:50;22.90;99.90
19365;DHT22;9818;48.382;10.850;2022-09-12T16:19:19;22.80;99.90
19365;DHT22;9818;48.382;10.850;2022-09-12T16:21:48;22.80;99.90
19365;DHT22;9818;48.382;10.850;2022-09-12T16:24:16;22.70;99.90
19365;DHT22;9818;48.382;10.850;2022-09-12T16:26:45;22.80;99.90
19365;DHT22;9818;48.382;10.850;2022-09-12T16:29:16;22.70;99.90
19365;DHT22;9818;48.382;10.850;2022-09-12T16:31:44;22.50;99.90
19365;DHT22;9818;48.382;10.850;2022-09-12T16:34:13;22.50;99.90
19365;DHT22;9818;48.382;10.850;2022-09-12T16:36:42;22.50;99.90
19365;DHT22;9818;48.382;10.850;2022-09-12T16:39:11;22.20;99.90
19365;DHT22;9818;48.382;10.850;2022-09-12T16:41:40;22.30;99.90
19365;DHT22;9818;48.382;10.850;2022-09-12T16:44:09;22.20;99.90
19365;DHT22;9818;48.382;10.850;2022-09-12T16:46:40;22.10;99.90
19365;DHT22;9818;48.382;10.850;2022-09-12T16:49:08;22.00;99.90
19365;DHT22;9818;48.382;10.850;2022-09-12T16:51:37;21.70;99.90
19365;DHT22;9818;48.382;10.850;2022-09-12T16:54:09;21.50;99.90
19365;DHT22;9818;48.382;10.850;2022-09-12T16:56:37;21.20;99.90
19365;DHT22;9818;48.382;10.850;2022-09-12T16:59:06;21.10;99.90
19365;DHT22;9818;48.382;10.850;2022-09-12T17:01:36;20.90;99.90
19365;DHT22;9818;48.382;10.850;2022-09-12T17:04:08;20.80;99.90
19365;DHT22;9818;48.382;10.850;2022-09-12T17:06:37;20.60;99.90
19365;DHT22;9818;48.382;10.850;2022-09-12T17:09:07;20.40;99.90
19365;DHT22;9818;48.382;10.850;2022-09-12T17:11:37;20.40;99.90
19365;DHT22;9818;48.382;10.850;2022-09-12T17:14:06;20.30;99.90
19365;DHT22;9818;48.382;10.850;2022-09-12T17:16:35;20.30;99.90
19365;DHT22;9818;48.382;10.850;2022-09-12T17:19:04;20.20;99.90
19365;DHT22;9818;48.382;10.850;2022-09-12T17:21:36;20.20;99.90
19365;DHT22;9818;48.382;10.850;2022-09-12T17:24:04;20.10;99.90
19365;DHT22;9818;48.382;10.850;2022-09-12T17:26:33;20.00;99.90
19365;DHT22;9818;48.382;10.850;2022-09-12T17:29:02;19.90;99.90
19365;DHT22;9818;48.382;10.850;2022-09-12T17:31:31;19.80;99.90
19365;DHT22;9818;48.382;10.850;2022-09-12T17:34:00;19.80;99.90
19365;DHT22;9818;48.382;10.850;2022-09-12T17:36:29;19.70;99.90
19365;DHT22;9818;48.382;10.850;2022-09-12T17:39:01;19.60;99.90
19365;DHT22;9818;48.382;10.850;2022-09-12T17:41:30;19.50;99.90
19365;DHT22;9818;48.382;10.850;2022-09-12T17:44:00;19.40;99.90
19365;DHT22;9818;48.382;10.850;2022-09-12T17:46:30;19.30;99.90